sensor_id;sensor_type;location;lat;lon;timestamp;P1;durP1;ratioP1;P2;durP2;ratioP2
65583;SDS011;73032;43.592;1.458;2024-01-27T00:00:58;18.70;;;9.65;;
65583;SDS011;73032;43.592;1.458;2024-01-27T00:03:24;20.67;;;9.75;;
65583;SDS011;73032;43.592;1.458;2024-01-27T00:05:51;19.58;;;9.48;;
65583;SDS011;73032;43.592;1.458;2024-01-27T00:08:19;18.98;;;9.48;;
65583;SDS011;73032;43.592;1.458;2024-01-27T00:10:47;14.57;;;8.25;;
65583;SDS011;73032;43.592;1.458;2024-01-27T00:13:14;17.58;;;8.85;;
65583;SDS011;73032;43.592;1.458;2024-01-27T00:15:40;15.30;;;8.18;;
65583;SDS011;73032;43.592;1.458;2024-01-27T00:18:07;15.50;;;8.10;;
65583;SDS011;73032;43.592;1.458;2024-01-27T00:20:34;15.18;;;7.57;;
65583;SDS011;73032;43.592;1.458;2024-01-27T00:23:01;14.20;;;7.05;;
65583;SDS011;73032;43.592;1.458;2024-01-27T00:25:27;15.52;;;7.90;;
65583;SDS011;73032;43.592;1.458;2024-01-27T00:27:54;13.95;;;7.07;;
65583;SDS011;73032;43.592;1.458;2024-01-27T00:30:21;12.77;;;6.80;;
65583;SDS011;73032;43.592;1.458;2024-01-27T00:32:48;13.98;;;7.25;;
65583;SDS011;73032;43.592;1.458;2024-01-27T00:35:14;14.30;;;7.07;;
65583;SDS011;73032;43.592;1.458;2024-01-27T00:37:41;12.77;;;6.82;;
65583;SDS011;73032;43.592;1.458;2024-01-27T00:40:11;12.07;;;6.40;;
65583;SDS011;73032;43.592;1.458;2024-01-27T00:42:38;11.10;;;6.13;;
65583;SDS011;73032;43.592;1.458;2024-01-27T00:45:05;11.25;;;6.25;;
65583;SDS011;73032;43.592;1.458;2024-01-27T00:47:32;11.00;;;5.45;;
65583;SDS011;73032;43.592;1.458;2024-01-27T00:49:59;10.85;;;5.78;;
65583;SDS011;73032;43.592;1.458;2024-01-27T00:52:28;11.38;;;6.00;;
65583;SDS011;73032;43.592;1.458;2024-01-27T00:54:56;11.77;;;5.65;;
65583;SDS011;73032;43.592;1.458;2024-01-27T00:57:22;13.80;;;6.60;;
65583;SDS011;73032;43.592;1.458;2024-01-27T00:59:49;12.32;;;5.85;;
65583;SDS011;73032;43.592;1.458;2024-01-27T01:02:16;12.25;;;5.82;;
65583;SDS011;73032;43.592;1.458;2024-01-27T01:04:43;11.15;;;5.78;;
65583;SDS011;73032;43.592;1.458;2024-01-27T01:07:11;9.50;;;5.53;;
65583;SDS011;73032;43.592;1.458;2024-01-27T01:09:37;10.65;;;5.93;;
65583;SDS011;73032;43.592;1.458;2024-01-27T01:12:04;13.20;;;5.80;;
65583;SDS011;73032;43.592;1.458;2024-01-27T01:14:34;10.10;;;5.18;;
65583;SDS011;73032;43.592;1.458;2024-01-27T01:17:01;9.98;;;5.43;;
65583;SDS011;73032;43.592;1.458;2024-01-27T01:19:28;10.18;;;5.20;;
65583;SDS011;73032;43.592;1.458;2024-01-27T01:21:55;10.45;;;5.60;;
65583;SDS011;73032;43.592;1.458;2024-01-27T01:24:21;10.50;;;5.22;;
65583;SDS011;73032;43.592;1.458;2024-01-27T01:26:48;10.15;;;5.57;;
65583;SDS011;73032;43.592;1.458;2024-01-27T01:29:15;10.63;;;5.45;;
65583;SDS011;73032;43.592;1.458;2024-01-27T01:31:42;9.10;;;4.80;;
65583;SDS011;73032;43.592;1.458;2024-01-27T01:34:09;8.77;;;5.03;;
65583;SDS011;73032;43.592;1.458;2024-01-27T01:36:36;9.60;;;5.18;;
65583;SDS011;73032;43.592;1.458;2024-01-27T01:39:04;7.68;;;4.47;;
65583;SDS011;73032;43.592;1.458;2024-01-27T01:41:30;7.57;;;4.30;;
65583;SDS011;73032;43.592;1.458;2024-01-27T01:43:57;8.18;;;4.55;;
65583;SDS011;73032;43.592;1.458;2024-01-27T01:46:24;7.80;;;4.38;;
65583;SDS011;73032;43.592;1.458;2024-01-27T01:48:51;6.97;;;4.03;;
65583;SDS011;73032;43.592;1.458;2024-01-27T01:51:18;7.22;;;3.80;;
65583;SDS011;73032;43.592;1.458;2024-01-27T01:53:48;7.00;;;3.90;;
65583;SDS011;73032;43.592;1.458;2024-01-27T01:56:15;6.80;;;3.97;;
65583;SDS011;73032;43.592;1.458;2024-01-27T01:58:42;4.85;;;3.08;;
65583;SDS011;73032;43.592;1.458;2024-01-27T02:01:09;7.03;;;3.72;;
65583;SDS011;73032;43.592;1.458;2024-01-27T02:03:36;5.50;;;3.45;;
65583;SDS011;73032;43.592;1.458;2024-01-27T02:06:02;6.75;;;4.00;;
65583;SDS011;73032;43.592;1.458;2024-01-27T02:08:30;5.05;;;3.25;;
65583;SDS011;73032;43.592;1.458;2024-01-27T02:10:57;5.40;;;3.30;;
65583;SDS011;73032;43.592;1.458;2024-01-27T02:13:24;6.50;;;3.88;;
65583;SDS011;73032;43.592;1.458;2024-01-27T02:15:51;5.95;;;3.55;;
65583;SDS011;73032;43.592;1.458;2024-01-27T02:18:18;6.53;;;3.67;;
65583;SDS011;73032;43.592;1.458;2024-01-27T02:20:45;5.70;;;3.35;;
65583;SDS011;73032;43.592;1.458;2024-01-27T02:23:12;5.63;;;3.13;;
65583;SDS011;73032;43.592;1.458;2024-01-27T02:25:39;5.40;;;3.00;;
65583;SDS011;73032;43.592;1.458;2024-01-27T02:28:08;5.25;;;3.00;;
65583;SDS011;73032;43.592;1.458;2024-01-27T02:30:35;4.78;;;3.03;;
65583;SDS011;73032;43.592;1.458;2024-01-27T02:33:05;5.25;;;3.00;;
65583;SDS011;73032;43.592;1.458;2024-01-27T02:35:34;5.72;;;3.30;;
65583;SDS011;73032;43.592;1.458;2024-01-27T02:38:00;5.15;;;3.15;;
65583;SDS011;73032;43.592;1.458;2024-01-27T02:40:27;5.72;;;3.45;;
65583;SDS011;73032;43.592;1.458;2024-01-27T02:42:54;5.35;;;3.10;;
65583;SDS011;73032;43.592;1.458;2024-01-27T02:45:20;5.75;;;3.22;;
65583;SDS011;73032;43.592;1.458;2024-01-27T02:47:47;6.93;;;3.33;;
65583;SDS011;73032;43.592;1.458;2024-01-27T02:50:14;5.88;;;3.38;;
65583;SDS011;73032;43.592;1.458;2024-01-27T02:52:41;5.05;;;2.95;;
65583;SDS011;73032;43.592;1.458;2024-01-27T02:55:08;5.80;;;3.08;;
65583;SDS011;73032;43.592;1.458;2024-01-27T02:57:35;6.22;;;3.17;;
65583;SDS011;73032;43.592;1.458;2024-01-27T03:00:01;5.13;;;3.00;;
65583;SDS011;73032;43.592;1.458;2024-01-27T03:02:29;5.38;;;3.13;;
65583;SDS011;73032;43.592;1.458;2024-01-27T03:04:55;4.97;;;2.90;;
65583;SDS011;73032;43.592;1.458;2024-01-27T03:07:23;5.28;;;3.05;;
65583;SDS011;73032;43.592;1.458;2024-01-27T03:09:50;5.72;;;2.97;;
65583;SDS011;73032;43.592;1.458;2024-01-27T03:12:17;5.57;;;3.25;;
65583;SDS011;73032;43.592;1.458;2024-01-27T03:14:45;5.43;;;3.08;;
65583;SDS011;73032;43.592;1.458;2024-01-27T03:17:13;4.65;;;3.05;;
65583;SDS011;73032;43.592;1.458;2024-01-27T03:19:39;5.30;;;3.10;;
65583;SDS011;73032;43.592;1.458;2024-01-27T03:22:06;6.57;;;3.38;;
65583;SDS011;73032;43.592;1.458;2024-01-27T03:24:33;5.93;;;3.47;;
65583;SDS011;73032;43.592;1.458;2024-01-27T03:27:00;5.30;;;3.20;;
65583;SDS011;73032;43.592;1.458;2024-01-27T03:29:27;5.22;;;3.08;;
65583;SDS011;73032;43.592;1.458;2024-01-27T03:31:54;6.45;;;3.20;;
65583;SDS011;73032;43.592;1.458;2024-01-27T03:34:21;4.57;;;2.90;;
65583;SDS011;73032;43.592;1.458;2024-01-27T03:36:51;5.30;;;3.03;;
65583;SDS011;73032;43.592;1.458;2024-01-27T03:39:18;5.55;;;3.17;;
65583;SDS011;73032;43.592;1.458;2024-01-27T03:41:45;5.20;;;3.00;;
65583;SDS011;73032;43.592;1.458;2024-01-27T03:44:11;5.55;;;3.30;;
65583;SDS011;73032;43.592;1.458;2024-01-27T03:46:38;4.70;;;2.83;;
65583;SDS011;73032;43.592;1.458;2024-01-27T03:49:05;5.18;;;2.97;;
65583;SDS011;73032;43.592;1.458;2024-01-27T03:51:32;4.75;;;2.92;;
65583;SDS011;73032;43.592;1.458;2024-01-27T03:53:59;5.00;;;2.97;;
65583;SDS011;73032;43.592;1.458;2024-01-27T03:56:26;5.10;;;2.90;;
65583;SDS011;73032;43.592;1.458;2024-01-27T03:58:53;4.30;;;2.58;;
65583;SDS011;73032;43.592;1.458;2024-01-27T04:01:20;4.47;;;2.60;;
65583;SDS011;73032;43.592;1.458;2024-01-27T04:03:47;5.38;;;3.17;;
65583;SDS011;73032;43.592;1.458;2024-01-27T04:06:14;4.53;;;2.75;;
65583;SDS011;73032;43.592;1.458;2024-01-27T04:08:41;4.65;;;2.85;;
65583;SDS011;73032;43.592;1.458;2024-01-27T04:11:29;4.88;;;2.72;;
65583;SDS011;73032;43.592;1.458;2024-01-27T04:13:56;5.00;;;2.70;;
65583;SDS011;73032;43.592;1.458;2024-01-27T04:16:23;4.70;;;2.83;;
65583;SDS011;73032;43.592;1.458;2024-01-27T04:18:49;4.57;;;2.72;;
65583;SDS011;73032;43.592;1.458;2024-01-27T04:21:17;4.25;;;2.50;;
65583;SDS011;73032;43.592;1.458;2024-01-27T04:23:43;3.88;;;2.35;;
65583;SDS011;73032;43.592;1.458;2024-01-27T04:26:10;4.72;;;2.65;;
65583;SDS011;73032;43.592;1.458;2024-01-27T04:28:37;4.68;;;2.40;;
65583;SDS011;73032;43.592;1.458;2024-01-27T04:31:04;4.10;;;2.45;;
65583;SDS011;73032;43.592;1.458;2024-01-27T04:33:31;4.38;;;2.40;;
65583;SDS011;73032;43.592;1.458;2024-01-27T04:35:59;4.47;;;2.42;;
65583;SDS011;73032;43.592;1.458;2024-01-27T04:38:26;3.50;;;2.08;;
65583;SDS011;73032;43.592;1.458;2024-01-27T04:40:53;4.13;;;2.30;;
65583;SDS011;73032;43.592;1.458;2024-01-27T04:43:19;4.72;;;2.60;;
65583;SDS011;73032;43.592;1.458;2024-01-27T04:45:49;3.60;;;2.13;;
65583;SDS011;73032;43.592;1.458;2024-01-27T04:48:16;3.83;;;2.08;;
65583;SDS011;73032;43.592;1.458;2024-01-27T04:50:44;4.03;;;2.25;;
65583;SDS011;73032;43.592;1.458;2024-01-27T04:53:11;4.38;;;2.20;;
65583;SDS011;73032;43.592;1.458;2024-01-27T04:55:37;3.92;;;2.28;;
65583;SDS011;73032;43.592;1.458;2024-01-27T04:58:07;3.67;;;2.13;;
65583;SDS011;73032;43.592;1.458;2024-01-27T05:00:34;5.10;;;2.40;;
65583;SDS011;73032;43.592;1.458;2024-01-27T05:03:01;4.40;;;2.45;;
65583;SDS011;73032;43.592;1.458;2024-01-27T05:05:31;4.20;;;2.28;;
65583;SDS011;73032;43.592;1.458;2024-01-27T05:08:02;3.67;;;1.90;;
65583;SDS011;73032;43.592;1.458;2024-01-27T05:10:28;3.55;;;2.10;;
65583;SDS011;73032;43.592;1.458;2024-01-27T05:12:55;3.35;;;2.13;;
65583;SDS011;73032;43.592;1.458;2024-01-27T05:15:22;3.15;;;2.10;;
65583;SDS011;73032;43.592;1.458;2024-01-27T05:17:49;2.85;;;1.90;;
65583;SDS011;73032;43.592;1.458;2024-01-27T05:20:17;3.75;;;2.10;;
65583;SDS011;73032;43.592;1.458;2024-01-27T05:22:44;3.30;;;2.00;;
65583;SDS011;73032;43.592;1.458;2024-01-27T05:25:11;3.45;;;2.10;;
65583;SDS011;73032;43.592;1.458;2024-01-27T05:27:38;3.97;;;2.30;;
65583;SDS011;73032;43.592;1.458;2024-01-27T05:30:05;3.75;;;2.38;;
65583;SDS011;73032;43.592;1.458;2024-01-27T05:32:33;3.25;;;1.92;;
65583;SDS011;73032;43.592;1.458;2024-01-27T05:34:59;2.75;;;1.65;;
65583;SDS011;73032;43.592;1.458;2024-01-27T05:37:26;3.10;;;1.70;;
65583;SDS011;73032;43.592;1.458;2024-01-27T05:39:53;3.75;;;2.00;;
65583;SDS011;73032;43.592;1.458;2024-01-27T05:42:19;3.50;;;1.90;;
65583;SDS011;73032;43.592;1.458;2024-01-27T05:44:49;3.05;;;1.70;;
65583;SDS011;73032;43.592;1.458;2024-01-27T05:47:16;2.92;;;1.83;;
65583;SDS011;73032;43.592;1.458;2024-01-27T05:49:43;3.00;;;1.70;;
65583;SDS011;73032;43.592;1.458;2024-01-27T05:52:10;3.60;;;2.20;;
65583;SDS011;73032;43.592;1.458;2024-01-27T05:54:49;3.67;;;2.10;;
65583;SDS011;73032;43.592;1.458;2024-01-27T05:57:16;4.28;;;2.00;;
65583;SDS011;73032;43.592;1.458;2024-01-27T05:59:44;3.17;;;1.90;;
65583;SDS011;73032;43.592;1.458;2024-01-27T06:02:10;2.47;;;1.60;;
65583;SDS011;73032;43.592;1.458;2024-01-27T06:04:37;2.78;;;1.55;;
65583;SDS011;73032;43.592;1.458;2024-01-27T06:07:04;2.47;;;1.42;;
65583;SDS011;73032;43.592;1.458;2024-01-27T06:09:31;2.30;;;1.40;;
65583;SDS011;73032;43.592;1.458;2024-01-27T06:11:59;2.20;;;1.38;;
65583;SDS011;73032;43.592;1.458;2024-01-27T06:14:27;2.08;;;1.40;;
65583;SDS011;73032;43.592;1.458;2024-01-27T06:16:53;2.50;;;1.40;;
65583;SDS011;73032;43.592;1.458;2024-01-27T06:19:21;1.85;;;1.25;;
65583;SDS011;73032;43.592;1.458;2024-01-27T06:21:48;1.95;;;1.20;;
65583;SDS011;73032;43.592;1.458;2024-01-27T06:24:18;1.95;;;1.27;;
65583;SDS011;73032;43.592;1.458;2024-01-27T06:26:45;2.33;;;1.30;;
65583;SDS011;73032;43.592;1.458;2024-01-27T06:29:11;2.72;;;1.30;;
65583;SDS011;73032;43.592;1.458;2024-01-27T06:31:38;1.95;;;1.30;;
65583;SDS011;73032;43.592;1.458;2024-01-27T06:34:05;2.35;;;1.45;;
65583;SDS011;73032;43.592;1.458;2024-01-27T06:36:32;1.92;;;1.20;;
65583;SDS011;73032;43.592;1.458;2024-01-27T06:38:58;2.17;;;1.27;;
65583;SDS011;73032;43.592;1.458;2024-01-27T06:41:25;1.92;;;1.15;;
65583;SDS011;73032;43.592;1.458;2024-01-27T06:43:52;1.88;;;1.23;;
65583;SDS011;73032;43.592;1.458;2024-01-27T06:46:19;1.98;;;1.30;;
65583;SDS011;73032;43.592;1.458;2024-01-27T06:48:45;1.90;;;1.30;;
65583;SDS011;73032;43.592;1.458;2024-01-27T06:51:12;2.08;;;1.15;;
65583;SDS011;73032;43.592;1.458;2024-01-27T06:53:39;1.58;;;1.10;;
65583;SDS011;73032;43.592;1.458;2024-01-27T06:56:06;1.90;;;1.25;;
65583;SDS011;73032;43.592;1.458;2024-01-27T06:58:34;2.05;;;1.20;;
65583;SDS011;73032;43.592;1.458;2024-01-27T07:01:03;1.30;;;1.00;;
65583;SDS011;73032;43.592;1.458;2024-01-27T07:03:30;1.27;;;0.93;;
65583;SDS011;73032;43.592;1.458;2024-01-27T07:05:56;1.75;;;1.05;;
65583;SDS011;73032;43.592;1.458;2024-01-27T07:08:27;2.10;;;1.10;;
65583;SDS011;73032;43.592;1.458;2024-01-27T07:10:54;1.65;;;1.02;;
65583;SDS011;73032;43.592;1.458;2024-01-27T07:13:20;1.80;;;1.10;;
65583;SDS011;73032;43.592;1.458;2024-01-27T07:15:47;1.60;;;1.10;;
65583;SDS011;73032;43.592;1.458;2024-01-27T07:18:14;1.90;;;1.15;;
65583;SDS011;73032;43.592;1.458;2024-01-27T07:20:41;2.10;;;1.15;;
65583;SDS011;73032;43.592;1.458;2024-01-27T07:23:08;1.55;;;0.90;;
65583;SDS011;73032;43.592;1.458;2024-01-27T07:25:35;1.88;;;1.10;;
65583;SDS011;73032;43.592;1.458;2024-01-27T07:28:02;1.35;;;1.00;;
65583;SDS011;73032;43.592;1.458;2024-01-27T07:30:29;2.00;;;1.20;;
65583;SDS011;73032;43.592;1.458;2024-01-27T07:32:57;1.85;;;1.10;;
65583;SDS011;73032;43.592;1.458;2024-01-27T07:35:24;1.20;;;0.90;;
65583;SDS011;73032;43.592;1.458;2024-01-27T07:37:50;1.75;;;0.90;;
65583;SDS011;73032;43.592;1.458;2024-01-27T07:40:17;1.67;;;0.90;;
65583;SDS011;73032;43.592;1.458;2024-01-27T07:42:45;1.63;;;1.05;;
65583;SDS011;73032;43.592;1.458;2024-01-27T07:45:12;1.50;;;0.90;;
65583;SDS011;73032;43.592;1.458;2024-01-27T07:47:38;1.42;;;0.80;;
65583;SDS011;73032;43.592;1.458;2024-01-27T07:50:05;1.13;;;0.80;;
65583;SDS011;73032;43.592;1.458;2024-01-27T07:52:32;1.30;;;0.90;;
65583;SDS011;73032;43.592;1.458;2024-01-27T07:54:59;1.30;;;0.90;;
65583;SDS011;73032;43.592;1.458;2024-01-27T07:57:27;1.50;;;0.90;;
65583;SDS011;73032;43.592;1.458;2024-01-27T07:59:54;1.42;;;0.93;;
65583;SDS011;73032;43.592;1.458;2024-01-27T08:02:21;1.55;;;0.80;;
65583;SDS011;73032;43.592;1.458;2024-01-27T08:04:48;0.90;;;0.70;;
65583;SDS011;73032;43.592;1.458;2024-01-27T08:07:14;1.27;;;0.85;;
65583;SDS011;73032;43.592;1.458;2024-01-27T08:09:43;1.50;;;1.00;;
65583;SDS011;73032;43.592;1.458;2024-01-27T08:12:10;1.55;;;1.00;;
65583;SDS011;73032;43.592;1.458;2024-01-27T08:14:37;1.48;;;0.80;;
65583;SDS011;73032;43.592;1.458;2024-01-27T08:17:04;1.20;;;0.70;;
65583;SDS011;73032;43.592;1.458;2024-01-27T08:19:31;1.25;;;0.70;;
65583;SDS011;73032;43.592;1.458;2024-01-27T08:21:58;0.90;;;0.70;;
65583;SDS011;73032;43.592;1.458;2024-01-27T08:24:25;1.10;;;0.70;;
65583;SDS011;73032;43.592;1.458;2024-01-27T08:26:52;0.90;;;0.70;;
65583;SDS011;73032;43.592;1.458;2024-01-27T08:29:19;1.00;;;0.70;;
65583;SDS011;73032;43.592;1.458;2024-01-27T08:31:45;1.10;;;0.70;;
65583;SDS011;73032;43.592;1.458;2024-01-27T08:34:13;1.08;;;0.65;;
65583;SDS011;73032;43.592;1.458;2024-01-27T08:36:41;1.05;;;0.70;;
65583;SDS011;73032;43.592;1.458;2024-01-27T08:39:07;1.30;;;0.80;;
65583;SDS011;73032;43.592;1.458;2024-01-27T08:41:35;1.98;;;0.90;;
65583;SDS011;73032;43.592;1.458;2024-01-27T08:44:02;1.45;;;0.90;;
65583;SDS011;73032;43.592;1.458;2024-01-27T08:46:29;1.58;;;0.98;;
65583;SDS011;73032;43.592;1.458;2024-01-27T08:48:56;1.88;;;1.08;;
65583;SDS011;73032;43.592;1.458;2024-01-27T08:51:26;1.70;;;0.90;;
65583;SDS011;73032;43.592;1.458;2024-01-27T08:53:52;2.28;;;1.10;;
65583;SDS011;73032;43.592;1.458;2024-01-27T08:56:19;1.42;;;0.93;;
65583;SDS011;73032;43.592;1.458;2024-01-27T08:58:46;1.25;;;0.80;;
65583;SDS011;73032;43.592;1.458;2024-01-27T09:01:15;0.88;;;0.70;;
65583;SDS011;73032;43.592;1.458;2024-01-27T09:03:42;1.58;;;0.82;;
65583;SDS011;73032;43.592;1.458;2024-01-27T09:06:10;1.42;;;1.00;;
65583;SDS011;73032;43.592;1.458;2024-01-27T09:08:37;1.80;;;0.90;;
65583;SDS011;73032;43.592;1.458;2024-01-27T09:11:04;1.25;;;0.80;;
65583;SDS011;73032;43.592;1.458;2024-01-27T09:13:32;0.80;;;0.68;;
65583;SDS011;73032;43.592;1.458;2024-01-27T09:15:59;1.00;;;0.70;;
65583;SDS011;73032;43.592;1.458;2024-01-27T09:18:26;1.10;;;0.82;;
65583;SDS011;73032;43.592;1.458;2024-01-27T09:20:54;1.67;;;0.90;;
65583;SDS011;73032;43.592;1.458;2024-01-27T09:23:22;1.80;;;0.90;;
65583;SDS011;73032;43.592;1.458;2024-01-27T09:25:49;1.23;;;0.90;;
65583;SDS011;73032;43.592;1.458;2024-01-27T09:28:16;0.95;;;0.70;;
65583;SDS011;73032;43.592;1.458;2024-01-27T09:30:43;1.38;;;1.00;;
65583;SDS011;73032;43.592;1.458;2024-01-27T09:33:10;1.30;;;0.90;;
65583;SDS011;73032;43.592;1.458;2024-01-27T09:35:38;1.50;;;1.00;;
65583;SDS011;73032;43.592;1.458;2024-01-27T09:38:05;0.82;;;0.80;;
65583;SDS011;73032;43.592;1.458;2024-01-27T09:40:35;1.20;;;0.90;;
65583;SDS011;73032;43.592;1.458;2024-01-27T09:43:03;1.55;;;0.80;;
65583;SDS011;73032;43.592;1.458;2024-01-27T09:45:30;2.08;;;1.05;;
65583;SDS011;73032;43.592;1.458;2024-01-27T09:47:59;1.63;;;0.90;;
65583;SDS011;73032;43.592;1.458;2024-01-27T09:50:27;1.80;;;1.00;;
65583;SDS011;73032;43.592;1.458;2024-01-27T09:52:54;1.55;;;1.00;;
65583;SDS011;73032;43.592;1.458;2024-01-27T09:55:21;1.40;;;1.10;;
65583;SDS011;73032;43.592;1.458;2024-01-27T09:57:48;2.80;;;1.20;;
65583;SDS011;73032;43.592;1.458;2024-01-27T10:00:15;1.75;;;1.00;;
65583;SDS011;73032;43.592;1.458;2024-01-27T10:02:44;1.42;;;0.95;;
65583;SDS011;73032;43.592;1.458;2024-01-27T10:05:12;1.25;;;0.90;;
65583;SDS011;73032;43.592;1.458;2024-01-27T10:07:39;2.38;;;0.90;;
65583;SDS011;73032;43.592;1.458;2024-01-27T10:10:06;2.20;;;1.48;;
65583;SDS011;73032;43.592;1.458;2024-01-27T10:12:35;2.05;;;1.25;;
65583;SDS011;73032;43.592;1.458;2024-01-27T10:15:17;1.75;;;1.20;;
65583;SDS011;73032;43.592;1.458;2024-01-27T10:17:45;2.28;;;1.20;;
65583;SDS011;73032;43.592;1.458;2024-01-27T10:20:12;1.70;;;1.20;;
65583;SDS011;73032;43.592;1.458;2024-01-27T10:22:45;1.95;;;1.10;;
65583;SDS011;73032;43.592;1.458;2024-01-27T10:25:11;2.35;;;1.50;;
65583;SDS011;73032;43.592;1.458;2024-01-27T10:27:39;2.08;;;1.40;;
65583;SDS011;73032;43.592;1.458;2024-01-27T10:30:08;2.50;;;1.52;;
65583;SDS011;73032;43.592;1.458;2024-01-27T10:32:42;2.30;;;1.55;;
65583;SDS011;73032;43.592;1.458;2024-01-27T10:35:09;3.22;;;1.48;;
65583;SDS011;73032;43.592;1.458;2024-01-27T10:37:36;2.58;;;1.45;;
65583;SDS011;73032;43.592;1.458;2024-01-27T10:40:04;2.40;;;1.48;;
65583;SDS011;73032;43.592;1.458;2024-01-27T10:45:02;2.20;;;1.42;;
65583;SDS011;73032;43.592;1.458;2024-01-27T10:47:31;2.53;;;1.65;;
65583;SDS011;73032;43.592;1.458;2024-01-27T10:49:59;2.45;;;1.60;;
65583;SDS011;73032;43.592;1.458;2024-01-27T10:52:33;2.05;;;1.40;;
65583;SDS011;73032;43.592;1.458;2024-01-27T10:55:04;2.78;;;1.83;;
65583;SDS011;73032;43.592;1.458;2024-01-27T10:57:35;2.60;;;1.40;;
65583;SDS011;73032;43.592;1.458;2024-01-27T11:00:03;2.50;;;1.60;;
65583;SDS011;73032;43.592;1.458;2024-01-27T11:02:35;2.85;;;1.58;;
65583;SDS011;73032;43.592;1.458;2024-01-27T11:05:09;2.85;;;1.63;;
65583;SDS011;73032;43.592;1.458;2024-01-27T11:07:37;2.45;;;1.67;;
65583;SDS011;73032;43.592;1.458;2024-01-27T11:10:05;2.35;;;1.58;;
65583;SDS011;73032;43.592;1.458;2024-01-27T11:12:34;2.70;;;1.80;;
65583;SDS011;73032;43.592;1.458;2024-01-27T11:15:01;2.50;;;1.50;;
65583;SDS011;73032;43.592;1.458;2024-01-27T11:17:37;2.72;;;1.73;;
65583;SDS011;73032;43.592;1.458;2024-01-27T11:20:10;2.47;;;1.60;;
65583;SDS011;73032;43.592;1.458;2024-01-27T11:22:37;2.90;;;1.98;;
65583;SDS011;73032;43.592;1.458;2024-01-27T11:27:42;3.88;;;2.30;;
65583;SDS011;73032;43.592;1.458;2024-01-27T11:30:26;2.58;;;1.52;;
65583;SDS011;73032;43.592;1.458;2024-01-27T11:32:57;3.00;;;1.77;;
65583;SDS011;73032;43.592;1.458;2024-01-27T11:35:24;4.00;;;2.60;;
65583;SDS011;73032;43.592;1.458;2024-01-27T11:37:51;5.88;;;2.65;;
65583;SDS011;73032;43.592;1.458;2024-01-27T11:40:18;3.40;;;2.30;;
65583;SDS011;73032;43.592;1.458;2024-01-27T11:42:57;4.75;;;2.80;;
65583;SDS011;73032;43.592;1.458;2024-01-27T11:45:32;4.82;;;2.97;;
65583;SDS011;73032;43.592;1.458;2024-01-27T11:47:59;3.92;;;2.40;;
65583;SDS011;73032;43.592;1.458;2024-01-27T11:50:27;3.22;;;2.00;;
65583;SDS011;73032;43.592;1.458;2024-01-27T11:52:54;3.53;;;2.25;;
65583;SDS011;73032;43.592;1.458;2024-01-27T11:55:22;3.10;;;1.98;;
65583;SDS011;73032;43.592;1.458;2024-01-27T11:57:49;2.35;;;1.63;;
65583;SDS011;73032;43.592;1.458;2024-01-27T12:00:16;2.92;;;1.85;;
65583;SDS011;73032;43.592;1.458;2024-01-27T12:02:43;3.38;;;2.05;;
65583;SDS011;73032;43.592;1.458;2024-01-27T12:05:10;2.53;;;1.73;;
65583;SDS011;73032;43.592;1.458;2024-01-27T12:07:37;3.67;;;1.70;;
65583;SDS011;73032;43.592;1.458;2024-01-27T12:10:04;2.55;;;1.80;;
65583;SDS011;73032;43.592;1.458;2024-01-27T12:12:31;3.47;;;2.10;;
65583;SDS011;73032;43.592;1.458;2024-01-27T12:14:58;3.38;;;2.13;;
65583;SDS011;73032;43.592;1.458;2024-01-27T12:17:26;3.05;;;1.83;;
65583;SDS011;73032;43.592;1.458;2024-01-27T12:19:53;2.47;;;1.50;;
65583;SDS011;73032;43.592;1.458;2024-01-27T12:24:55;2.95;;;1.60;;
65583;SDS011;73032;43.592;1.458;2024-01-27T12:27:22;3.10;;;1.70;;
65583;SDS011;73032;43.592;1.458;2024-01-27T12:29:49;2.83;;;1.50;;
65583;SDS011;73032;43.592;1.458;2024-01-27T12:32:17;4.35;;;1.95;;
65583;SDS011;73032;43.592;1.458;2024-01-27T12:34:44;3.65;;;1.98;;
65583;SDS011;73032;43.592;1.458;2024-01-27T12:37:12;2.80;;;1.70;;
65583;SDS011;73032;43.592;1.458;2024-01-27T12:39:45;3.63;;;1.80;;
65583;SDS011;73032;43.592;1.458;2024-01-27T12:42:12;2.72;;;1.60;;
65583;SDS011;73032;43.592;1.458;2024-01-27T12:44:39;2.38;;;1.70;;
65583;SDS011;73032;43.592;1.458;2024-01-27T12:47:06;4.18;;;1.95;;
65583;SDS011;73032;43.592;1.458;2024-01-27T12:49:34;3.47;;;1.83;;
65583;SDS011;73032;43.592;1.458;2024-01-27T12:52:01;2.45;;;1.60;;
65583;SDS011;73032;43.592;1.458;2024-01-27T12:54:29;3.22;;;1.67;;
65583;SDS011;73032;43.592;1.458;2024-01-27T12:56:56;3.25;;;1.80;;
65583;SDS011;73032;43.592;1.458;2024-01-27T12:59:23;3.65;;;1.77;;
65583;SDS011;73032;43.592;1.458;2024-01-27T13:01:49;2.92;;;1.60;;
65583;SDS011;73032;43.592;1.458;2024-01-27T13:04:16;3.33;;;1.73;;
65583;SDS011;73032;43.592;1.458;2024-01-27T13:06:43;2.45;;;1.70;;
65583;SDS011;73032;43.592;1.458;2024-01-27T13:09:10;2.85;;;1.70;;
65583;SDS011;73032;43.592;1.458;2024-01-27T13:11:40;5.47;;;1.90;;
65583;SDS011;73032;43.592;1.458;2024-01-27T13:14:08;3.78;;;1.60;;
65583;SDS011;73032;43.592;1.458;2024-01-27T13:16:36;3.47;;;2.00;;
65583;SDS011;73032;43.592;1.458;2024-01-27T13:19:03;2.42;;;1.75;;
65583;SDS011;73032;43.592;1.458;2024-01-27T13:21:29;3.13;;;2.13;;
65583;SDS011;73032;43.592;1.458;2024-01-27T13:23:57;3.50;;;2.28;;
65583;SDS011;73032;43.592;1.458;2024-01-27T13:26:23;3.53;;;2.00;;
65583;SDS011;73032;43.592;1.458;2024-01-27T13:28:53;3.63;;;2.20;;
65583;SDS011;73032;43.592;1.458;2024-01-27T13:31:20;3.40;;;2.00;;
65583;SDS011;73032;43.592;1.458;2024-01-27T13:33:47;2.92;;;1.73;;
65583;SDS011;73032;43.592;1.458;2024-01-27T13:36:15;2.67;;;1.92;;
65583;SDS011;73032;43.592;1.458;2024-01-27T13:38:43;2.90;;;2.10;;
65583;SDS011;73032;43.592;1.458;2024-01-27T13:41:10;3.22;;;1.98;;
65583;SDS011;73032;43.592;1.458;2024-01-27T13:43:36;2.50;;;1.75;;
65583;SDS011;73032;43.592;1.458;2024-01-27T13:46:03;2.45;;;1.70;;
65583;SDS011;73032;43.592;1.458;2024-01-27T13:48:30;2.03;;;1.50;;
65583;SDS011;73032;43.592;1.458;2024-01-27T13:50:57;3.08;;;1.60;;
65583;SDS011;73032;43.592;1.458;2024-01-27T13:53:25;2.53;;;1.60;;
65583;SDS011;73032;43.592;1.458;2024-01-27T13:56:08;2.38;;;1.40;;
65583;SDS011;73032;43.592;1.458;2024-01-27T13:58:35;2.33;;;1.50;;
65583;SDS011;73032;43.592;1.458;2024-01-27T14:01:03;2.33;;;1.55;;
65583;SDS011;73032;43.592;1.458;2024-01-27T14:03:30;3.08;;;1.77;;
65583;SDS011;73032;43.592;1.458;2024-01-27T14:05:57;2.90;;;1.92;;
65583;SDS011;73032;43.592;1.458;2024-01-27T14:08:24;3.60;;;2.15;;
65583;SDS011;73032;43.592;1.458;2024-01-27T14:10:51;2.42;;;1.90;;
65583;SDS011;73032;43.592;1.458;2024-01-27T14:13:19;2.80;;;1.85;;
65583;SDS011;73032;43.592;1.458;2024-01-27T14:15:46;4.35;;;2.30;;
65583;SDS011;73032;43.592;1.458;2024-01-27T14:18:12;3.10;;;2.08;;
65583;SDS011;73032;43.592;1.458;2024-01-27T14:20:48;2.30;;;1.63;;
65583;SDS011;73032;43.592;1.458;2024-01-27T14:23:17;2.55;;;1.70;;
65583;SDS011;73032;43.592;1.458;2024-01-27T14:25:47;2.55;;;2.15;;
65583;SDS011;73032;43.592;1.458;2024-01-27T14:28:16;3.05;;;2.10;;
65583;SDS011;73032;43.592;1.458;2024-01-27T14:30:46;2.55;;;1.80;;
65583;SDS011;73032;43.592;1.458;2024-01-27T14:33:12;3.45;;;1.98;;
65583;SDS011;73032;43.592;1.458;2024-01-27T14:35:39;2.50;;;1.67;;
65583;SDS011;73032;43.592;1.458;2024-01-27T14:38:07;2.78;;;2.00;;
65583;SDS011;73032;43.592;1.458;2024-01-27T14:40:35;2.45;;;1.60;;
65583;SDS011;73032;43.592;1.458;2024-01-27T14:43:03;2.60;;;1.77;;
65583;SDS011;73032;43.592;1.458;2024-01-27T14:45:35;2.65;;;1.60;;
65583;SDS011;73032;43.592;1.458;2024-01-27T14:48:02;3.40;;;1.83;;
65583;SDS011;73032;43.592;1.458;2024-01-27T14:50:30;2.75;;;1.70;;
65583;SDS011;73032;43.592;1.458;2024-01-27T14:52:57;1.88;;;1.38;;
65583;SDS011;73032;43.592;1.458;2024-01-27T14:55:25;2.53;;;1.73;;